Time;durP1;ratioP1;P1;durP2;ratioP2;P2;SDS_P1;SDS_P2;PMS_P1;PMS_P2;Temp;Humidity;BMP_temperature;BMP_pressure;BME280_temperature;BME280_humidity;BME280_pressure;Samples;Min_cycle;Max_cycle;Signal;HPM_P1;HPM_P2
2022/05/25 00:00:09;;;;;;;0.10;0.10;;;9.30;99.90;;;;;;5069035;28;20059;-81
2022/05/25 00:02:37;;;;;;;0.10;0.10;;;9.30;99.90;;;;;;5070129;28;20044;-81
2022/05/25 00:05:09;;;;;;;0.20;0.20;;;9.30;99.90;;;;;;5069561;28;20494;-82
2022/05/25 00:07:36;;;;;;;0.10;0.10;;;9.20;99.90;;;;;;5069379;28;20379;-82
2022/05/25 00:10:03;;;;;;;0.28;0.28;;;9.20;99.90;;;;;;5052667;28;20041;-82
2022/05/25 00:12:30;;;;;;;0.10;0.10;;;9.20;99.90;;;;;;5053165;28;20512;-82
2022/05/25 00:14:57;;;;;;;0.22;0.10;;;9.20;99.90;;;;;;5054661;28;20040;-82
2022/05/25 00:17:24;;;;;;;0.10;0.10;;;9.20;99.90;;;;;;5062758;28;20037;-82
2022/05/25 00:19:59;;;;;;;0.10;0.10;;;9.10;99.90;;;;;;5052975;28;20052;-81
2022/05/25 00:22:28;;;;;;;0.10;0.10;;;9.20;99.90;;;;;;5054096;28;20041;-81
2022/05/25 00:24:57;;;;;;;1.55;0.20;;;9.10;99.90;;;;;;5075582;28;20058;-81
2022/05/25 00:27:24;;;;;;;0.43;0.40;;;9.10;99.90;;;;;;5072608;28;20127;-81
2022/05/25 00:29:50;;;;;;;0.20;0.20;;;9.10;99.90;;;;;;5074620;28;20095;-82
2022/05/25 00:32:17;;;;;;;0.20;0.20;;;9.10;99.90;;;;;;5060329;28;20405;-81
2022/05/25 00:34:44;;;;;;;0.30;0.25;;;9.10;99.90;;;;;;5076301;28;20083;-80
2022/05/25 00:37:10;;;;;;;0.20;0.20;;;9.20;99.90;;;;;;5076290;28;20056;-81
2022/05/25 00:39:38;;;;;;;0.20;0.20;;;9.10;99.90;;;;;;5060568;28;20048;-82
2022/05/25 00:42:05;;;;;;;0.20;0.20;;;9.10;99.90;;;;;;5076390;28;20562;-82
2022/05/25 00:44:32;;;;;;;0.10;0.10;;;9.10;99.90;;;;;;5058243;28;20405;-81
2022/05/25 00:46:59;;;;;;;0.30;0.30;;;9.00;99.90;;;;;;5056495;28;20183;-82
2022/05/25 00:49:28;;;;;;;0.03;0.03;;;9.10;99.90;;;;;;5056776;28;20051;-82
2022/05/25 00:52:00;;;;;;;0.00;0.00;;;9.00;99.90;;;;;;5073271;28;20136;-81
2022/05/25 00:54:31;;;;;;;0.32;0.28;;;9.00;99.90;;;;;;5073370;28;20044;-81
2022/05/25 00:57:03;;;;;;;0.10;0.10;;;9.00;99.90;;;;;;5093261;28;20032;-82
2022/05/25 00:59:41;;;;;;;0.10;0.10;;;9.00;99.90;;;;;;5093040;28;20090;-82
2022/05/25 01:02:07;;;;;;;0.20;0.20;;;9.10;99.90;;;;;;5109403;28;20120;-81
2022/05/25 01:04:34;;;;;;;0.20;0.20;;;9.10;99.90;;;;;;5060202;28;20104;-80
2022/05/25 01:07:32;;;;;;;0.10;0.10;;;9.30;99.90;;;;;;5059896;28;20161;-82
2022/05/25 01:10:26;;;;;;;0.10;0.10;;;9.20;99.90;;;;;;5075659;28;20139;-82
2022/05/25 01:13:25;;;;;;;0.38;0.20;;;9.20;99.90;;;;;;5092649;28;20040;-80
2022/05/25 01:16:30;;;;;;;0.15;0.10;;;9.20;99.90;;;;;;5109315;28;20127;-81
2022/05/25 01:19:19;;;;;;;0.10;0.10;;;9.20;99.90;;;;;;5106821;28;20198;-80
2022/05/25 01:22:09;;;;;;;0.13;0.13;;;9.30;99.90;;;;;;5072125;28;20052;-80
2022/05/25 01:25:14;;;;;;;0.10;0.10;;;9.30;99.90;;;;;;5098160;28;20795;-82
2022/05/25 01:27:46;;;;;;;0.13;0.13;;;9.30;99.90;;;;;;5092247;28;20098;-80
2022/05/25 01:30:19;;;;;;;0.10;0.10;;;9.30;99.90;;;;;;5075580;28;20037;-82
2022/05/25 01:33:01;;;;;;;0.10;0.10;;;9.20;99.90;;;;;;5092204;28;20036;-81
2022/05/25 01:35:44;;;;;;;0.10;0.10;;;9.20;99.90;;;;;;5076076;28;20056;-82
2022/05/25 01:38:22;;;;;;;0.20;0.13;;;9.20;99.90;;;;;;5088995;28;20049;-82
2022/05/25 01:41:04;;;;;;;0.10;0.10;;;9.20;99.90;;;;;;5071654;28;20040;-80
2022/05/25 01:44:06;;;;;;;0.65;0.10;;;9.20;99.90;;;;;;5071913;28;20044;-82
2022/05/25 01:46:53;;;;;;;0.20;0.20;;;9.20;99.90;;;;;;5071456;28;20080;-81
2022/05/25 01:49:24;;;;;;;0.38;0.10;;;9.20;99.90;;;;;;5074244;28;20452;-81
2022/05/25 01:52:02;;;;;;;0.10;0.10;;;9.20;99.90;;;;;;5091802;28;20245;-82
2022/05/25 01:54:34;;;;;;;0.22;0.22;;;9.20;99.90;;;;;;5108513;28;20047;-80
2022/05/25 01:57:05;;;;;;;0.30;0.30;;;9.20;99.90;;;;;;5092245;28;20044;-82
2022/05/25 01:59:32;;;;;;;0.10;0.10;;;9.10;99.90;;;;;;5092087;28;20047;-82
2022/05/25 02:04:52;;;;;;;0.17;0.17;;;9.10;99.90;;;;;;5098817;28;20056;-80
2022/05/25 02:07:42;;;;;;;0.10;0.10;;;9.10;99.90;;;;;;5075073;28;20036;-82
2022/05/25 02:10:46;;;;;;;0.10;0.10;;;9.10;99.90;;;;;;5091756;28;20040;-80
2022/05/25 02:13:34;;;;;;;0.10;0.10;;;9.10;99.90;;;;;;5078807;28;20538;-82
2022/05/25 02:16:22;;;;;;;0.10;0.10;;;9.10;99.90;;;;;;5069688;28;20044;-81
2022/05/25 02:19:22;;;;;;;0.35;0.25;;;9.10;99.90;;;;;;5070381;28;20037;-82
2022/05/25 02:22:00;;;;;;;0.32;0.30;;;9.10;99.90;;;;;;5071113;28;20040;-81
2022/05/25 02:24:37;;;;;;;0.10;0.10;;;9.10;99.90;;;;;;5062905;28;20147;-80
2022/05/25 02:27:06;;;;;;;0.10;0.10;;;9.10;99.90;;;;;;5067048;28;20044;-82
2022/05/25 02:29:40;;;;;;;0.25;0.25;;;9.10;99.90;;;;;;5059729;28;20106;-82
2022/05/25 02:32:32;;;;;;;0.10;0.10;;;9.10;99.90;;;;;;5067071;28;20513;-82
2022/05/25 02:35:00;;;;;;;0.30;0.28;;;9.10;99.90;;;;;;5075133;28;20049;-80
2022/05/25 02:37:30;;;;;;;0.52;0.40;;;9.10;99.90;;;;;;5067906;28;20095;-82
2022/05/25 02:39:59;;;;;;;0.10;0.10;;;9.00;99.90;;;;;;5087374;28;20383;-81
2022/05/25 02:42:26;;;;;;;0.13;0.13;;;9.00;99.90;;;;;;5087154;28;20106;-81
2022/05/25 02:44:54;;;;;;;0.20;0.20;;;9.10;99.90;;;;;;5051176;28;20029;-82
2022/05/25 02:47:21;;;;;;;0.20;0.17;;;9.00;99.90;;;;;;5050722;28;20094;-82
2022/05/25 02:49:48;;;;;;;0.20;0.20;;;9.00;99.90;;;;;;5051095;28;20128;-82
2022/05/25 02:52:14;;;;;;;0.10;0.10;;;9.10;99.90;;;;;;5050748;28;20517;-83
2022/05/25 02:54:41;;;;;;;0.10;0.10;;;9.10;99.90;;;;;;5070125;28;20088;-82
2022/05/25 02:57:08;;;;;;;0.20;0.20;;;9.10;99.90;;;;;;5054689;28;20033;-81
2022/05/25 02:59:35;;;;;;;0.15;0.15;;;9.00;99.90;;;;;;5054035;28;20036;-82
2022/05/25 03:02:04;;;;;;;0.13;0.13;;;9.00;99.90;;;;;;5037354;28;20045;-82
2022/05/25 03:04:37;;;;;;;0.25;0.20;;;9.10;99.90;;;;;;5053563;28;20045;-81
2022/05/25 03:07:05;;;;;;;0.38;0.38;;;9.10;99.90;;;;;;5086679;28;20405;-81
2022/05/25 03:09:33;;;;;;;0.15;0.15;;;9.10;99.90;;;;;;5086333;28;20131;-81
2022/05/25 03:12:02;;;;;;;0.35;0.20;;;9.50;99.90;;;;;;5086811;28;20041;-81
2022/05/25 03:14:30;;;;;;;0.00;0.00;;;9.10;99.90;;;;;;5053579;28;20508;-82
2022/05/25 03:16:58;;;;;;;0.10;0.10;;;9.10;99.90;;;;;;5086920;28;20086;-82
2022/05/25 03:19:25;;;;;;;0.10;0.10;;;9.10;99.90;;;;;;5053756;28;20033;-81
2022/05/25 03:21:52;;;;;;;0.22;0.20;;;9.10;99.90;;;;;;5069899;28;20414;-81
2022/05/25 03:24:18;;;;;;;0.40;0.30;;;9.10;99.90;;;;;;5053171;28;20045;-82
2022/05/25 03:26:45;;;;;;;0.30;0.20;;;9.10;99.90;;;;;;5053043;28;20080;-82
2022/05/25 03:29:13;;;;;;;0.30;0.30;;;9.10;99.90;;;;;;5069935;28;20044;-81
2022/05/25 03:31:40;;;;;;;0.20;0.10;;;9.10;99.90;;;;;;5053353;28;20573;-81
2022/05/25 03:34:07;;;;;;;0.10;0.10;;;9.10;99.90;;;;;;5058866;28;20091;-81
2022/05/25 03:36:34;;;;;;;0.10;0.10;;;9.10;99.90;;;;;;5073186;28;20075;-81
2022/05/25 03:39:00;;;;;;;0.20;0.20;;;9.10;99.90;;;;;;5056792;28;20040;-80
2022/05/25 03:41:27;;;;;;;0.32;0.20;;;9.10;99.90;;;;;;5088084;28;20041;-81
2022/05/25 03:43:54;;;;;;;0.45;0.30;;;9.10;99.90;;;;;;5053357;28;20097;-82
2022/05/25 03:46:21;;;;;;;0.30;0.30;;;9.10;99.90;;;;;;5069421;28;20502;-80
2022/05/25 03:48:47;;;;;;;0.10;0.10;;;9.10;99.90;;;;;;5053034;28;20102;-82
2022/05/25 03:51:14;;;;;;;0.35;0.20;;;9.10;99.90;;;;;;5053353;28;20044;-80
2022/05/25 03:53:41;;;;;;;0.25;0.25;;;9.10;99.90;;;;;;5069221;28;20477;-82
2022/05/25 03:56:08;;;;;;;0.45;0.28;;;9.10;99.90;;;;;;5053032;28;20037;-82
2022/05/25 03:58:35;;;;;;;0.20;0.20;;;9.50;99.90;;;;;;5069799;28;20041;-81
2022/05/25 04:01:02;;;;;;;0.10;0.10;;;9.10;99.90;;;;;;5069495;28;20055;-81
2022/05/25 04:03:29;;;;;;;0.28;0.28;;;9.10;99.90;;;;;;5078870;28;20064;-82
2022/05/25 04:05:56;;;;;;;0.10;0.10;;;9.20;99.90;;;;;;5056118;28;20110;-81
2022/05/25 04:08:22;;;;;;;0.20;0.20;;;9.20;99.90;;;;;;5056863;28;20127;-81
2022/05/25 04:10:49;;;;;;;0.17;0.17;;;9.20;99.90;;;;;;5089205;28;20529;-81
2022/05/25 04:13:16;;;;;;;0.35;0.28;;;9.20;99.90;;;;;;5089155;28;20094;-81
2022/05/25 04:15:43;;;;;;;0.10;0.10;;;9.30;99.90;;;;;;5056120;28;20032;-81
2022/05/25 04:18:10;;;;;;;0.05;0.05;;;9.30;99.90;;;;;;5089473;28;20037;-81
2022/05/25 04:20:36;;;;;;;0.20;0.20;;;9.30;99.90;;;;;;5089338;28;20390;-80
2022/05/25 04:23:07;;;;;;;0.10;0.10;;;9.30;99.90;;;;;;5087296;28;20510;-81
2022/05/25 04:25:39;;;;;;;0.10;0.10;;;9.30;99.90;;;;;;5106002;28;20045;-81
2022/05/25 04:28:06;;;;;;;0.10;0.10;;;9.30;99.90;;;;;;5089058;28;20127;-80
2022/05/25 04:30:32;;;;;;;0.20;0.20;;;9.30;99.90;;;;;;5056218;28;20136;-82
2022/05/25 04:32:59;;;;;;;0.20;0.20;;;9.30;99.90;;;;;;5089448;28;20055;-82
2022/05/25 04:35:26;;;;;;;0.30;0.30;;;9.30;99.90;;;;;;5089073;28;20052;-82
2022/05/25 04:37:54;;;;;;;0.10;0.10;;;9.40;99.90;;;;;;5072484;28;20056;-80
2022/05/25 04:40:33;;;;;;;0.10;0.10;;;9.40;99.90;;;;;;5089631;28;20041;-81
2022/05/25 04:43:03;;;;;;;0.17;0.17;;;9.40;99.90;;;;;;5089238;28;20531;-81
2022/05/25 04:45:31;;;;;;;0.22;0.22;;;9.50;99.90;;;;;;5089059;28;20098;-82
2022/05/25 04:48:00;;;;;;;0.20;0.20;;;9.50;99.90;;;;;;5073010;28;20041;-82
2022/05/25 04:50:31;;;;;;;0.52;0.40;;;9.50;99.90;;;;;;5089325;28;20052;-80
2022/05/25 04:52:59;;;;;;;0.22;0.22;;;9.60;99.90;;;;;;5088801;28;20466;-81
2022/05/25 04:58:24;;;;;;;0.20;0.20;;;9.70;99.90;;;;;;5105590;28;20044;-82
2022/05/25 05:00:52;;;;;;;0.20;0.20;;;9.70;99.90;;;;;;5088923;28;20043;-81
2022/05/25 05:03:20;;;;;;;0.20;0.20;;;9.70;99.90;;;;;;5080497;28;20086;-81
2022/05/25 05:05:47;;;;;;;0.20;0.20;;;9.70;99.90;;;;;;5052215;28;20094;-80
2022/05/25 05:08:17;;;;;;;0.15;0.15;;;9.80;99.90;;;;;;5068757;28;20726;-82
2022/05/25 05:10:44;;;;;;;0.35;0.35;;;9.80;99.90;;;;;;5052639;28;20028;-81
2022/05/25 05:13:11;;;;;;;0.10;0.10;;;9.90;99.90;;;;;;5068813;28;20413;-81
2022/05/25 05:15:41;;;;;;;0.10;0.10;;;9.90;99.90;;;;;;5053268;28;20041;-81
2022/05/25 05:18:08;;;;;;;0.22;0.20;;;10.00;99.90;;;;;;5072559;28;20041;-81
2022/05/25 05:20:35;;;;;;;0.10;0.10;;;10.00;99.90;;;;;;5057091;28;20551;-80
2022/05/25 05:23:02;;;;;;;0.10;0.10;;;10.00;99.90;;;;;;5055893;28;20037;-82
2022/05/25 05:25:29;;;;;;;0.22;0.22;;;10.20;99.90;;;;;;5055695;28;20048;-82
2022/05/25 05:28:07;;;;;;;0.40;0.38;;;10.20;99.90;;;;;;5071923;28;20036;-81
2022/05/25 05:30:38;;;;;;;0.30;0.30;;;10.20;99.90;;;;;;5072144;28;20482;-81
2022/05/25 05:33:05;;;;;;;0.47;0.40;;;10.30;99.90;;;;;;5075239;28;20035;-81
2022/05/25 05:35:32;;;;;;;0.20;0.20;;;10.40;99.90;;;;;;5075347;28;20448;-81
2022/05/25 05:37:59;;;;;;;0.20;0.20;;;10.40;99.90;;;;;;5063461;28;20033;-81
2022/05/25 05:40:27;;;;;;;0.10;0.10;;;10.50;99.90;;;;;;5071946;28;20454;-80
2022/05/25 05:42:54;;;;;;;0.20;0.20;;;10.50;99.90;;;;;;5054966;28;20159;-82
2022/05/25 05:45:28;;;;;;;0.25;0.20;;;10.60;99.90;;;;;;5055204;28;20052;-82
2022/05/25 05:48:05;;;;;;;0.20;0.20;;;10.70;99.90;;;;;;5071830;28;20063;-81
2022/05/25 05:50:34;;;;;;;0.10;0.10;;;10.80;99.90;;;;;;5072282;28;20204;-80
2022/05/25 05:53:01;;;;;;;0.03;0.03;;;10.80;99.90;;;;;;5073043;28;20040;-82
2022/05/25 05:55:27;;;;;;;0.08;0.08;;;10.90;99.90;;;;;;5055330;28;20098;-81
2022/05/25 05:57:54;;;;;;;0.28;0.20;;;11.00;99.90;;;;;;5071448;28;20071;-82
2022/05/25 06:00:21;;;;;;;0.10;0.10;;;11.00;99.90;;;;;;5071653;28;20051;-81
2022/05/25 06:02:50;;;;;;;0.13;0.13;;;11.10;99.90;;;;;;5062928;28;20494;-82
2022/05/25 06:05:17;;;;;;;0.17;0.17;;;11.20;99.90;;;;;;5075849;28;20060;-81
2022/05/25 06:07:44;;;;;;;0.20;0.20;;;11.30;99.90;;;;;;5075083;28;20440;-81
2022/05/25 06:10:11;;;;;;;0.20;0.20;;;11.30;99.90;;;;;;5039563;28;20040;-81
2022/05/25 06:12:38;;;;;;;1.30;0.20;;;11.40;99.90;;;;;;5074074;28;20124;-82
2022/05/25 06:20:37;;;;;;;0.35;0.32;;;11.70;99.90;;;;;;5093882;28;20482;-82
2022/05/25 06:23:04;;;;;;;0.43;0.40;;;11.80;99.90;;;;;;5073167;28;20040;-83
2022/05/25 06:25:30;;;;;;;0.22;0.15;;;11.80;99.90;;;;;;5071425;28;20041;-82
2022/05/25 06:27:57;;;;;;;0.22;0.20;;;12.00;99.90;;;;;;5070100;28;20119;-82
2022/05/25 06:30:24;;;;;;;0.50;0.35;;;12.00;99.90;;;;;;5071206;28;20044;-83
2022/05/25 06:32:51;;;;;;;0.20;0.10;;;12.10;99.90;;;;;;5054293;28;20045;-82
2022/05/25 06:35:18;;;;;;;0.30;0.30;;;12.20;99.90;;;;;;5070807;28;20056;-83
2022/05/25 06:37:45;;;;;;;0.30;0.30;;;12.30;99.90;;;;;;5054585;28;20041;-83
2022/05/25 06:40:12;;;;;;;0.17;0.17;;;12.40;99.90;;;;;;5071084;28;20033;-82
2022/05/25 06:42:41;;;;;;;0.32;0.28;;;12.40;99.90;;;;;;5062938;28;20030;-82
2022/05/25 06:45:10;;;;;;;0.32;0.32;;;12.60;99.90;;;;;;5044029;28;20853;-83
2022/05/25 06:47:37;;;;;;;0.32;0.30;;;12.60;99.90;;;;;;5038108;28;20123;-81
2022/05/25 06:50:05;;;;;;;0.43;0.32;;;12.80;99.90;;;;;;5067342;28;20037;-82
2022/05/25 06:52:31;;;;;;;0.22;0.20;;;12.80;99.90;;;;;;5037413;28;20053;-82
2022/05/25 06:54:58;;;;;;;0.30;0.30;;;12.90;99.90;;;;;;5074055;28;20042;-82
2022/05/25 06:57:25;;;;;;;0.20;0.15;;;13.00;99.90;;;;;;5053570;28;20119;-82
2022/05/25 06:59:52;;;;;;;0.30;0.30;;;13.10;99.90;;;;;;5057977;28;20033;-84
2022/05/25 07:02:19;;;;;;;0.17;0.17;;;13.20;99.90;;;;;;5050617;28;20064;-83
2022/05/25 07:04:46;;;;;;;0.20;0.20;;;13.30;99.90;;;;;;5050518;28;20041;-83
2022/05/25 07:07:12;;;;;;;0.00;0.00;;;13.40;99.90;;;;;;5040056;28;20065;-83
2022/05/25 07:09:39;;;;;;;0.20;0.17;;;13.50;99.90;;;;;;5051071;28;20068;-82
2022/05/25 07:12:07;;;;;;;0.25;0.17;;;13.60;99.90;;;;;;5050314;28;20520;-83
2022/05/25 07:14:36;;;;;;;0.22;0.22;;;13.60;99.90;;;;;;5084404;28;20120;-83
2022/05/25 07:17:03;;;;;;;0.17;0.17;;;13.70;99.90;;;;;;5069829;28;20041;-84
2022/05/25 07:19:30;;;;;;;0.10;0.10;;;13.80;99.90;;;;;;5069906;28;20063;-82
2022/05/25 07:21:57;;;;;;;0.25;0.17;;;13.90;99.90;;;;;;5053258;28;20120;-83
2022/05/25 07:24:24;;;;;;;0.28;0.15;;;14.00;99.90;;;;;;5068593;28;20037;-84
2022/05/25 07:26:50;;;;;;;0.20;0.20;;;14.00;99.90;;;;;;5053365;28;20085;-84
2022/05/25 07:29:17;;;;;;;0.10;0.10;;;14.10;99.90;;;;;;5037100;28;20102;-84
2022/05/25 07:31:55;;;;;;;0.25;0.20;;;14.20;99.90;;;;;;5070143;28;20041;-83
2022/05/25 07:34:26;;;;;;;0.10;0.10;;;14.20;99.90;;;;;;5069753;28;20053;-82
2022/05/25 07:37:04;;;;;;;0.15;0.13;;;14.30;99.90;;;;;;5086922;28;20029;-82
2022/05/25 07:39:36;;;;;;;0.22;0.22;;;14.40;99.90;;;;;;5071405;28;20502;-82
2022/05/25 07:42:04;;;;;;;0.10;0.10;;;14.50;99.90;;;;;;5062611;28;20040;-81
2022/05/25 07:44:38;;;;;;;0.22;0.20;;;14.70;99.90;;;;;;5069855;28;20156;-82
2022/05/25 07:47:05;;;;;;;0.20;0.10;;;14.70;99.90;;;;;;5069565;28;20040;-82
2022/05/25 07:49:31;;;;;;;0.28;0.25;;;14.70;99.90;;;;;;5053365;28;20076;-82
2022/05/25 07:52:01;;;;;;;0.70;0.40;;;14.80;99.90;;;;;;5069814;28;20084;-81
2022/05/25 07:54:28;;;;;;;0.88;0.20;;;14.80;99.90;;;;;;5069784;28;20041;-81
2022/05/25 07:56:55;;;;;;;0.10;0.10;;;15.00;99.90;;;;;;5053274;28;20037;-81
2022/05/25 07:59:22;;;;;;;0.20;0.20;;;15.10;99.90;;;;;;5053174;28;20051;-81
2022/05/25 08:07:36;;;;;;;0.10;0.10;;;15.50;99.90;;;;;;5066022;28;20787;-82
2022/05/25 08:10:11;;;;;;;0.15;0.15;;;15.60;99.90;;;;;;5069287;28;20029;-82
2022/05/25 08:12:38;;;;;;;0.20;0.20;;;15.60;99.90;;;;;;5069357;28;20037;-82
2022/05/25 08:15:08;;;;;;;0.20;0.20;;;15.60;99.90;;;;;;5052545;28;20037;-82
2022/05/25 08:17:35;;;;;;;0.28;0.20;;;15.80;99.90;;;;;;5069246;28;20037;-82
2022/05/25 08:20:02;;;;;;;0.80;0.30;;;15.90;99.90;;;;;;5069017;28;20045;-81
2022/05/25 08:22:29;;;;;;;0.20;0.20;;;16.10;99.90;;;;;;5085922;28;20433;-81
2022/05/25 08:24:56;;;;;;;0.47;0.32;;;16.20;99.90;;;;;;5052879;28;20041;-81
2022/05/25 08:27:23;;;;;;;0.30;0.30;;;16.20;99.90;;;;;;5052710;28;20127;-82
2022/05/25 08:29:49;;;;;;;0.20;0.20;;;16.20;99.90;;;;;;5052613;28;20438;-81
2022/05/25 08:32:16;;;;;;;0.10;0.10;;;16.30;99.90;;;;;;5052423;28;20073;-81
2022/05/25 08:34:43;;;;;;;0.10;0.10;;;16.30;99.90;;;;;;5078763;28;20521;-80
2022/05/25 08:37:11;;;;;;;0.22;0.20;;;16.30;99.90;;;;;;5048795;28;20041;-81
2022/05/25 08:39:37;;;;;;;0.10;0.10;;;16.30;99.90;;;;;;5058648;28;20041;-81
2022/05/25 08:42:08;;;;;;;0.13;0.13;;;16.30;99.90;;;;;;5053093;28;20038;-81
2022/05/25 08:44:36;;;;;;;0.30;0.20;;;16.30;99.90;;;;;;5079949;28;20041;-81
2022/05/25 08:47:07;;;;;;;0.20;0.20;;;16.40;99.90;;;;;;5082900;28;20494;-81
2022/05/25 08:49:36;;;;;;;0.13;0.13;;;16.40;99.90;;;;;;5085984;28;20076;-81
2022/05/25 08:52:06;;;;;;;0.08;0.08;;;16.60;99.90;;;;;;5089091;28;20041;-81
2022/05/25 08:54:36;;;;;;;0.32;0.20;;;16.70;99.90;;;;;;5085754;28;20030;-80
2022/05/25 08:57:07;;;;;;;0.32;0.20;;;16.90;99.90;;;;;;5084568;28;20110;-82
2022/05/25 08:59:42;;;;;;;0.45;0.20;;;16.90;99.90;;;;;;5072812;28;20074;-82
2022/05/25 09:02:27;;;;;;;0.20;0.20;;;17.00;99.90;;;;;;5069228;28;20041;-81
2022/05/25 09:05:09;;;;;;;0.60;0.20;;;17.00;99.90;;;;;;5053007;28;20049;-83
2022/05/25 09:07:41;;;;;;;0.20;0.20;;;16.90;99.90;;;;;;5052913;28;20042;-82
2022/05/25 09:10:11;;;;;;;0.38;0.20;;;16.80;99.90;;;;;;5068747;28;20045;-81
2022/05/25 09:12:42;;;;;;;0.17;0.17;;;16.90;99.90;;;;;;5089019;28;20076;-81
2022/05/25 09:15:12;;;;;;;0.32;0.22;;;17.00;99.90;;;;;;5072038;28;20044;-81
2022/05/25 09:17:56;;;;;;;0.08;0.08;;;17.10;99.90;;;;;;5072278;28;20045;-80
2022/05/25 09:20:42;;;;;;;0.20;0.20;;;17.30;99.90;;;;;;5088500;28;20043;-81
2022/05/25 09:23:10;;;;;;;0.20;0.20;;;17.40;99.90;;;;;;5068884;28;20107;-81
2022/05/25 09:25:38;;;;;;;0.03;0.03;;;17.50;99.90;;;;;;5052738;28;20037;-81
2022/05/25 09:28:12;;;;;;;0.30;0.15;;;17.60;99.90;;;;;;5052563;28;20037;-81
2022/05/25 09:30:41;;;;;;;0.20;0.20;;;17.80;99.90;;;;;;5068806;28;20586;-81
2022/05/25 09:33:18;;;;;;;0.30;0.30;;;18.00;99.90;;;;;;5052597;28;20045;-81
2022/05/25 09:35:58;;;;;;;0.00;0.00;;;18.10;99.90;;;;;;5068736;28;20057;-81
2022/05/25 09:38:50;;;;;;;0.35;0.17;;;17.90;99.90;;;;;;5068656;28;20065;-82
2022/05/25 09:41:23;;;;;;;0.10;0.10;;;17.90;99.90;;;;;;5054539;28;20100;-81
2022/05/25 09:43:56;;;;;;;0.10;0.10;;;17.80;99.90;;;;;;5052115;28;20118;-81
2022/05/25 09:46:45;;;;;;;0.10;0.10;;;17.70;99.90;;;;;;5070180;28;20048;-79
2022/05/25 09:49:33;;;;;;;0.08;0.08;;;17.70;99.90;;;;;;5070506;28;20053;-78
2022/05/25 09:52:04;;;;;;;0.40;0.20;;;17.50;99.90;;;;;;5087333;28;20045;-80
2022/05/25 09:54:46;;;;;;;0.70;0.30;;;17.30;99.90;;;;;;5087796;28;20041;-81
2022/05/25 09:57:21;;;;;;;0.00;0.00;;;17.40;99.90;;;;;;5071498;28;20048;-80
2022/05/25 10:00:03;;;;;;;0.15;0.15;;;17.60;99.90;;;;;;5071713;28;20108;-80
2022/05/25 10:02:48;;;;;;;0.20;0.20;;;17.60;99.90;;;;;;5087989;28;20091;-80
2022/05/25 10:05:23;;;;;;;;;;;17.70;99.90;;;;;;5079625;28;20041;-80
2022/05/25 10:07:56;;;;;;;0.17;0.13;;;17.70;99.90;;;;;;5087165;28;19924;-80
2022/05/25 10:10:44;;;;;;;0.10;0.10;;;17.80;99.90;;;;;;5056729;28;20111;-80
2022/05/25 10:13:19;;;;;;;0.20;0.10;;;17.90;99.90;;;;;;5073573;28;20032;-80
2022/05/25 10:15:51;;;;;;;;;;;17.90;99.90;;;;;;5077808;28;20103;-80
2022/05/25 10:18:40;;;;;;;0.20;0.20;;;17.90;99.90;;;;;;5067971;28;20012;-81
2022/05/25 10:21:13;;;;;;;0.20;0.20;;;17.80;99.90;;;;;;5051633;28;20048;-81
2022/05/25 10:23:44;;;;;;;0.20;0.20;;;17.70;99.90;;;;;;5068762;28;20037;-82
2022/05/25 10:26:12;;;;;;;0.17;0.17;;;17.50;99.90;;;;;;5051047;28;20042;-81
2022/05/25 10:28:51;;;;;;;0.55;0.45;;;17.40;99.90;;;;;;5061190;28;20124;-81
2022/05/25 10:37:06;;;;;;;0.10;0.10;;;18.10;99.90;;;;;;5107746;28;20135;-81
2022/05/25 10:39:40;;;;;;;0.10;0.10;;;18.30;99.90;;;;;;5090940;28;20068;-81
2022/05/25 10:42:32;;;;;;;0.20;0.20;;;18.40;99.90;;;;;;5085135;28;20159;-81
2022/05/25 10:45:09;;;;;;;0.10;0.10;;;18.30;99.90;;;;;;5074186;28;20109;-81
2022/05/25 10:47:45;;;;;;;0.38;0.20;;;18.40;99.90;;;;;;5090313;28;20460;-82
2022/05/25 10:50:21;;;;;;;0.20;0.20;;;18.40;99.90;;;;;;5090826;28;20468;-82
2022/05/25 10:52:53;;;;;;;0.30;0.20;;;18.30;99.90;;;;;;5091131;28;20561;-82
2022/05/25 10:55:24;;;;;;;0.10;0.10;;;18.20;99.90;;;;;;5090555;28;20467;-81
2022/05/25 10:58:14;;;;;;;0.20;0.20;;;18.10;99.90;;;;;;5068783;28;20044;-81
2022/05/25 11:01:08;;;;;;;0.10;0.10;;;17.80;99.90;;;;;;5067523;28;20681;-81
2022/05/25 11:04:05;;;;;;;0.20;0.20;;;17.60;99.90;;;;;;5064643;28;20493;-81
2022/05/25 11:06:49;;;;;;;0.13;0.13;;;17.30;99.90;;;;;;5073267;28;20040;-81
2022/05/25 11:10:01;;;;;;;0.43;0.30;;;17.20;99.90;;;;;;5086196;28;20064;-81
2022/05/25 11:12:54;;;;;;;1.70;0.43;;;17.20;99.90;;;;;;5053272;28;20044;-81
2022/05/25 11:15:40;;;;;;;0.20;0.20;;;17.40;99.90;;;;;;5077149;28;20128;-80
2022/05/25 11:18:22;;;;;;;0.15;0.15;;;17.60;99.90;;;;;;5090472;28;20036;-81
2022/05/25 11:20:58;;;;;;;0.77;0.57;;;17.80;99.90;;;;;;5077018;28;20468;-81
2022/05/25 11:23:37;;;;;;;0.30;0.30;;;17.80;99.90;;;;;;5073185;28;20029;-81
2022/05/25 11:26:10;;;;;;;0.15;0.15;;;18.20;99.90;;;;;;5089944;28;20483;-81
2022/05/25 11:28:46;;;;;;;0.30;0.20;;;18.40;99.90;;;;;;5073356;28;20041;-81
2022/05/25 11:31:37;;;;;;;0.30;0.30;;;18.30;99.90;;;;;;5086811;28;20059;-81
2022/05/25 11:34:33;;;;;;;0.30;0.25;;;18.30;99.90;;;;;;5069900;28;20060;-81
2022/05/25 11:37:11;;;;;;;0.30;0.30;;;18.20;99.90;;;;;;5073894;28;20075;-81
2022/05/25 11:39:58;;;;;;;0.52;0.30;;;18.20;99.90;;;;;;5073214;28;20074;-81
2022/05/25 11:42:56;;;;;;;0.10;0.10;;;18.20;99.90;;;;;;5086285;28;20036;-81
2022/05/25 11:45:44;;;;;;;0.45;0.30;;;18.20;99.90;;;;;;5069884;28;20090;-81
2022/05/25 11:48:29;;;;;;;0.35;0.28;;;18.10;99.90;;;;;;5070736;28;20037;-81
2022/05/25 11:51:23;;;;;;;0.27;0.20;;;18.20;99.90;;;;;;5072777;28;20131;-81
2022/05/25 11:54:15;;;;;;;0.25;0.25;;;18.60;99.90;;;;;;5066848;28;20279;-81
2022/05/25 11:56:51;;;;;;;0.20;0.20;;;18.70;99.90;;;;;;5082685;28;20039;-81
2022/05/25 11:59:36;;;;;;;0.22;0.22;;;18.50;99.90;;;;;;5072978;28;20036;-81
2022/05/25 12:02:26;;;;;;;0.22;0.20;;;18.30;99.90;;;;;;5089379;28;20036;-81
2022/05/25 12:05:22;;;;;;;0.05;0.05;;;18.50;99.90;;;;;;5061644;28;20102;-81
2022/05/25 12:08:27;;;;;;;0.10;0.10;;;18.50;99.90;;;;;;5069161;28;20047;-81
2022/05/25 12:11:08;;;;;;;0.20;0.20;;;18.50;99.90;;;;;;5088332;28;20198;-81
2022/05/25 12:13:48;;;;;;;0.20;0.20;;;18.30;99.90;;;;;;5088933;28;20082;-81
2022/05/25 12:16:33;;;;;;;0.10;0.10;;;18.00;99.90;;;;;;5105968;28;20041;-81
2022/05/25 12:19:21;;;;;;;0.30;0.10;;;18.00;99.90;;;;;;5089227;28;20770;-81
2022/05/25 12:21:52;;;;;;;0.38;0.32;;;17.80;99.90;;;;;;5087385;28;20405;-81
2022/05/25 12:24:33;;;;;;;0.20;0.20;;;17.70;99.90;;;;;;5086614;28;20040;-81
2022/05/25 12:27:03;;;;;;;0.20;0.20;;;17.60;99.90;;;;;;5098264;28;20045;-80
2022/05/25 12:29:35;;;;;;;0.55;0.30;;;17.30;99.90;;;;;;5081933;28;20073;-81
2022/05/25 12:32:02;;;;;;;0.10;0.10;;;17.00;99.90;;;;;;5093640;28;20127;-81
2022/05/25 12:34:35;;;;;;;0.20;0.13;;;16.80;99.90;;;;;;5072098;28;20132;-81
2022/05/25 12:37:04;;;;;;;0.30;0.22;;;16.30;99.90;;;;;;5087048;28;20049;-81
2022/05/25 12:39:46;;;;;;;0.00;0.00;;;16.20;99.90;;;;;;5056818;28;20123;-81
2022/05/25 12:42:22;;;;;;;0.13;0.13;;;16.10;99.90;;;;;;5073430;28;20033;-81
2022/05/25 12:50:52;;;;;;;0.20;0.20;;;16.00;99.90;;;;;;5083411;28;20055;-81
2022/05/25 12:53:45;;;;;;;0.13;0.10;;;16.30;99.90;;;;;;5052975;28;20055;-81
2022/05/25 12:56:19;;;;;;;1.20;0.38;;;16.70;99.90;;;;;;5053304;28;20554;-81
2022/05/25 12:58:46;;;;;;;0.30;0.30;;;16.90;99.90;;;;;;5056246;28;20115;-80
2022/05/25 13:01:27;;;;;;;0.20;0.20;;;17.00;99.90;;;;;;5089396;28;20120;-81
2022/05/25 13:03:54;;;;;;;0.25;0.20;;;17.00;99.90;;;;;;5088905;28;20043;-80
2022/05/25 13:06:29;;;;;;;0.10;0.10;;;16.90;99.90;;;;;;5077327;28;20040;-80
2022/05/25 13:08:58;;;;;;;0.20;0.20;;;17.00;99.90;;;;;;5072349;28;20135;-80
2022/05/25 13:11:35;;;;;;;0.30;0.30;;;17.10;99.90;;;;;;5076632;28;20053;-81
2022/05/25 13:14:17;;;;;;;0.47;0.20;;;17.20;99.90;;;;;;5079770;28;20064;-80
2022/05/25 13:16:46;;;;;;;0.10;0.10;;;17.40;99.90;;;;;;5087373;28;20497;-80
2022/05/25 13:19:14;;;;;;;0.10;0.10;;;17.60;99.90;;;;;;5089223;28;20083;-81
2022/05/25 13:22:09;;;;;;;0.50;0.30;;;17.70;99.90;;;;;;5083338;28;20099;-81
2022/05/25 13:25:08;;;;;;;0.20;0.20;;;17.90;99.90;;;;;;5062172;28;20045;-81
2022/05/25 13:27:57;;;;;;;0.35;0.22;;;18.00;99.90;;;;;;5089095;28;20076;-80
2022/05/25 13:30:38;;;;;;;0.13;0.13;;;17.90;99.90;;;;;;5072667;28;20048;-80
2022/05/25 13:33:22;;;;;;;0.25;0.17;;;17.90;99.90;;;;;;5087713;28;20399;-81
2022/05/25 13:35:56;;;;;;;1.15;0.30;;;18.00;99.90;;;;;;5088073;28;20057;-82
2022/05/25 13:38:38;;;;;;;0.15;0.15;;;18.10;99.90;;;;;;5087193;28;20040;-82
2022/05/25 13:41:10;;;;;;;0.20;0.20;;;17.80;99.90;;;;;;5088262;28;20132;-80
2022/05/25 13:43:58;;;;;;;0.10;0.10;;;17.70;99.90;;;;;;5071702;28;20482;-80
2022/05/25 13:46:39;;;;;;;0.13;0.13;;;17.80;99.90;;;;;;5063495;28;20514;-80
2022/05/25 13:49:09;;;;;;;0.10;0.10;;;17.80;99.90;;;;;;5088158;28;20049;-81
2022/05/25 13:51:36;;;;;;;0.52;0.28;;;17.90;99.90;;;;;;5071832;28;20029;-82